createdAt,value
2023-06-11T00:00:16.881Z,99.90
2023-06-11T00:06:21.618Z,99.90
2023-06-11T00:12:23.819Z,99.90
2023-06-11T00:18:26.350Z,99.90
2023-06-11T00:24:28.371Z,99.90
2023-06-11T00:30:31.095Z,99.90
2023-06-11T00:36:34.325Z,99.90
2023-06-11T00:42:37.544Z,99.90
2023-06-11T00:48:39.837Z,99.90
2023-06-11T00:54:43.277Z,99.90
2023-06-11T01:00:55.704Z,99.90
2023-06-11T01:07:01.004Z,99.90
2023-06-11T01:13:02.964Z,99.90
2023-06-11T01:19:38.584Z,99.90
2023-06-11T01:25:45.391Z,99.90
2023-06-11T01:31:47.636Z,99.90
2023-06-11T01:37:56.639Z,99.90
2023-06-11T01:43:58.689Z,99.90
2023-06-11T01:50:00.738Z,99.90
2023-06-11T01:56:03.432Z,99.90
2023-06-11T02:02:05.602Z,99.90
2023-06-11T02:08:07.618Z,99.90
2023-06-11T02:14:09.608Z,99.90
2023-06-11T02:20:13.243Z,99.90
2023-06-11T02:26:15.256Z,99.90
2023-06-11T02:32:17.261Z,99.90
2023-06-11T02:38:19.211Z,99.90
2023-06-11T02:44:22.667Z,99.90
2023-06-11T02:50:24.695Z,99.90
2023-06-11T02:56:27.614Z,99.90
2023-06-11T03:02:29.616Z,99.90
2023-06-11T03:08:31.619Z,99.90
2023-06-11T03:14:33.595Z,99.90
2023-06-11T03:20:35.567Z,99.90
2023-06-11T03:26:37.544Z,99.90
2023-06-11T03:32:41.142Z,99.90
2023-06-11T03:38:43.164Z,99.90
2023-06-11T03:44:45.130Z,99.90
2023-06-11T03:50:47.137Z,99.90
2023-06-11T03:56:49.249Z,99.90
2023-06-11T04:02:51.504Z,99.90
2023-06-11T04:08:53.684Z,99.90
2023-06-11T04:14:55.911Z,99.90
2023-06-11T04:20:58.038Z,99.90
2023-06-11T04:27:00.896Z,99.90
2023-06-11T04:33:05.670Z,99.90
2023-06-11T04:39:09.073Z,99.90
2023-06-11T04:45:12.483Z,99.90
2023-06-11T04:51:17.781Z,99.90
2023-06-11T04:57:19.761Z,99.90
2023-06-11T05:03:23.038Z,99.90
2023-06-11T05:09:25.456Z,99.90
2023-06-11T05:15:27.636Z,99.90
2023-06-11T05:21:29.691Z,99.90
2023-06-11T05:27:32.921Z,99.90
2023-06-11T05:33:34.912Z,99.90
2023-06-11T05:39:36.925Z,99.90
2023-06-11T05:45:50.958Z,99.90
2023-06-11T05:51:53.559Z,99.90
2023-06-11T05:57:55.795Z,99.90
2023-06-11T06:03:57.879Z,99.90
2023-06-11T06:09:59.980Z,99.90
2023-06-11T06:16:01.988Z,99.90
2023-06-11T06:22:05.277Z,99.90
2023-06-11T06:28:07.258Z,99.90
2023-06-11T06:34:09.836Z,99.90
2023-06-11T06:40:13.487Z,99.90
2023-06-11T06:46:15.613Z,99.90
2023-06-11T06:52:17.580Z,99.90
2023-06-11T06:58:19.602Z,99.90
2023-06-11T07:04:21.581Z,99.90
2023-06-11T07:10:23.626Z,99.90
2023-06-11T07:16:25.685Z,99.90
2023-06-11T07:22:27.733Z,99.90
2023-06-11T07:28:29.684Z,99.90
2023-06-11T07:34:31.722Z,99.90
2023-06-11T07:40:33.694Z,99.90
2023-06-11T07:46:35.734Z,99.90
2023-06-11T07:52:37.895Z,99.90
2023-06-11T07:58:39.828Z,99.90
2023-06-11T08:04:42.257Z,99.90
2023-06-11T08:10:46.820Z,99.90
2023-06-11T08:16:49.127Z,99.90
2023-06-11T08:22:51.254Z,99.90
2023-06-11T08:28:53.547Z,99.90
2023-06-11T08:34:55.888Z,99.90
2023-06-11T08:40:58.286Z,99.90
2023-06-11T08:47:04.022Z,99.90
2023-06-11T08:53:07.736Z,99.90
2023-06-11T08:59:09.991Z,99.90
2023-06-11T09:05:12.779Z,99.90
2023-06-11T09:11:17.085Z,99.90
2023-06-11T09:17:19.119Z,99.90
2023-06-11T09:23:32.104Z,99.90
2023-06-11T09:29:35.889Z,99.90
2023-06-11T09:35:45.342Z,99.90
2023-06-11T09:41:52.042Z,99.90
2023-06-11T09:47:54.252Z,99.90
2023-06-11T09:53:57.129Z,99.90
2023-06-11T10:00:00.781Z,96.50
2023-06-11T10:06:08.530Z,93.90
2023-06-11T10:12:12.792Z,93.50
2023-06-11T10:18:16.644Z,93.90
2023-06-11T10:24:29.156Z,91.10
2023-06-11T10:30:32.674Z,90.50
2023-06-11T10:36:37.200Z,90.50
2023-06-11T10:42:41.880Z,92.10
2023-06-11T10:48:55.527Z,88.60
2023-06-11T10:54:58.713Z,92.20
2023-06-11T11:01:01.225Z,88.30
2023-06-11T11:07:12.402Z,88.70
2023-06-11T11:13:14.465Z,85.20
2023-06-11T11:19:17.020Z,88.40
2023-06-11T11:25:26.680Z,86.40
2023-06-11T11:31:28.737Z,88.50
2023-06-11T11:37:31.236Z,92.70
2023-06-11T11:43:42.780Z,90.20
2023-06-11T11:49:54.464Z,89.30
2023-06-11T11:56:05.977Z,91.30
2023-06-11T12:02:10.453Z,89.30
2023-06-11T12:08:12.414Z,92.70
2023-06-11T12:14:14.359Z,92.30
2023-06-11T12:20:16.350Z,92.50
2023-06-11T12:26:19.000Z,92.40
2023-06-11T12:32:26.369Z,83.80
2023-06-11T12:38:29.327Z,83.40
2023-06-11T12:44:32.307Z,76.60
2023-06-11T12:50:34.282Z,77.20
2023-06-11T12:56:36.235Z,74.00
2023-06-11T13:02:39.867Z,64.60
2023-06-11T13:08:41.900Z,68.60
2023-06-11T13:14:44.573Z,70.00
2023-06-11T13:20:47.182Z,61.00
2023-06-11T13:26:49.348Z,66.00
2023-06-11T13:32:52.336Z,58.40
2023-06-11T13:38:54.365Z,63.60
2023-06-11T13:44:56.669Z,66.20
2023-06-11T13:50:58.890Z,60.00
2023-06-11T13:57:01.942Z,58.60
2023-06-11T14:03:04.963Z,57.40
2023-06-11T14:09:07.226Z,56.80
2023-06-11T14:15:09.905Z,55.50
2023-06-11T14:21:11.837Z,54.70
2023-06-11T14:27:14.345Z,55.50
2023-06-11T14:33:16.335Z,53.30
2023-06-11T14:39:19.602Z,52.20
2023-06-11T14:45:21.555Z,54.80
2023-06-11T14:51:24.142Z,53.60
2023-06-11T14:57:26.722Z,55.80
2023-06-11T15:03:28.742Z,54.50
2023-06-11T15:09:31.080Z,57.10
2023-06-11T15:15:33.032Z,53.90
2023-06-11T15:21:34.972Z,61.20
2023-06-11T15:27:36.963Z,59.80
2023-06-11T15:33:39.198Z,58.60
2023-06-11T15:39:41.254Z,57.20
2023-06-11T15:45:43.266Z,55.20
2023-06-11T15:51:47.705Z,54.90
2023-06-11T15:57:51.448Z,55.70
2023-06-11T16:03:53.950Z,55.50
2023-06-11T16:09:55.997Z,56.80
2023-06-11T16:15:58.050Z,55.00
2023-06-11T16:22:00.173Z,55.50
2023-06-11T16:28:02.234Z,54.30
2023-06-11T16:34:04.216Z,54.20
2023-06-11T16:40:07.627Z,54.40
2023-06-11T16:46:09.637Z,52.40
2023-06-11T16:52:11.653Z,49.60
2023-06-11T16:58:13.593Z,51.70
2023-06-11T17:04:15.773Z,48.90
2023-06-11T17:10:17.854Z,50.70
2023-06-11T17:16:20.430Z,50.00
2023-06-11T17:22:24.229Z,49.10
2023-06-11T17:28:26.297Z,47.50
2023-06-11T17:34:28.291Z,46.40
2023-06-11T17:40:30.319Z,47.40
2023-06-11T17:46:32.677Z,46.20
2023-06-11T17:52:34.935Z,47.10
2023-06-11T17:58:40.780Z,46.90
2023-06-11T18:04:42.889Z,48.70
2023-06-11T18:10:44.947Z,48.10
2023-06-11T18:16:47.078Z,48.10
2023-06-11T18:22:49.214Z,49.30
2023-06-11T18:28:51.171Z,51.70
2023-06-11T18:34:53.099Z,52.40
2023-06-11T18:40:55.276Z,56.90
2023-06-11T18:47:01.936Z,58.60
2023-06-11T18:53:03.920Z,63.10
2023-06-11T18:59:05.926Z,68.60
2023-06-11T19:05:08.896Z,77.80
2023-06-11T19:11:10.925Z,80.60
2023-06-11T19:17:13.146Z,86.00
2023-06-11T19:23:21.689Z,90.30
2023-06-11T19:29:23.668Z,97.60
2023-06-11T19:35:26.105Z,99.90
2023-06-11T19:41:30.300Z,99.90
2023-06-11T19:47:33.709Z,99.90
2023-06-11T19:53:35.695Z,99.90
2023-06-11T19:59:40.820Z,99.90
2023-06-11T20:05:43.161Z,99.90
2023-06-11T20:11:53.729Z,99.90
2023-06-11T20:18:05.285Z,99.90
2023-06-11T20:24:08.206Z,99.90
2023-06-11T20:30:13.950Z,99.90
2023-06-11T20:36:17.664Z,99.90
2023-06-11T20:42:19.678Z,99.90
2023-06-11T20:48:22.112Z,99.90
2023-06-11T20:54:24.099Z,99.90
2023-06-11T21:00:26.188Z,99.90
2023-06-11T21:06:28.110Z,99.90
2023-06-11T21:12:30.016Z,99.90
2023-06-11T21:18:32.043Z,99.90
2023-06-11T21:24:34.049Z,99.90
2023-06-11T21:30:37.987Z,99.90
2023-06-11T21:36:39.947Z,99.90
2023-06-11T21:42:41.893Z,99.90
2023-06-11T21:48:46.020Z,99.90
2023-06-11T21:54:48.565Z,99.90
2023-06-11T22:00:50.518Z,99.90
2023-06-11T22:06:53.758Z,99.90
2023-06-11T22:13:09.550Z,99.90
2023-06-11T22:19:11.679Z,99.90
2023-06-11T22:25:14.516Z,99.90
2023-06-11T22:31:18.955Z,99.90
2023-06-11T22:37:20.989Z,99.90
2023-06-11T22:43:22.972Z,99.90
2023-06-11T22:49:29.394Z,99.90
2023-06-11T22:55:31.501Z,99.90
2023-06-11T23:01:33.910Z,99.90
2023-06-11T23:07:36.554Z,99.90
2023-06-11T23:13:38.496Z,99.90
2023-06-11T23:19:42.402Z,99.90
2023-06-11T23:25:45.584Z,99.90
2023-06-11T23:31:47.693Z,99.90
2023-06-11T23:37:52.543Z,99.90
2023-06-11T23:43:56.346Z,99.90
2023-06-11T23:49:59.318Z,99.90
2023-06-11T23:56:02.922Z,99.90
